Springfield, MO (65897)

8:55 AM CST on February 08, 2016 (GMT -0600)
Urban Roots Farm | | Change Station
CLOSE
Current Station
Personal Weather Station
Location: Springfield, MO
Elevation: 1306 ft
Nearby Weather Stations
Active Advisory: Wind Advisory

Elev 1306 ft 37.20 °N, 93.30 °W | Updated 11 minutes ago

Overcast
Overcast
34.0 °F
Feels Like 30 °F
N
4.7
Wind Variable Wind from West

Today
High -- | Low -- °F
--% Chance of Precip.
Yesterday
High -- | Low -- °F
Precip. -- in
Pressure 29.99 in
Visibility 10.0 miles
Clouds Few 4300 ft
Overcast 6000 ft
Windchill 30 °F
Dew Point 22 °F
Humidity 61%
Rainfall 0.00 in
Snow Depth Not available.
7:10 AM 5:45 PM
Waning Crescent, 0% visible
METAR KSGF 081452Z 31012G24KT 10SM FEW043 OVC060 02/M08 A2996 RMK AO2 SLP153 T00171083 53003
Pressure 29.99 in
Visibility 10.0 miles
Clouds Few 4300 ft
Overcast 6000 ft
Windchill 30 °F
Dew Point 22 °F
Humidity 61%
Rainfall 0.00 in
Snow Depth Not available.
7:10 AM 5:45 PM
Waning Crescent, 0% visible
METAR KSGF 081452Z 31012G24KT 10SM FEW043 OVC060 02/M08 A2996 RMK AO2 SLP153 T00171083 53003

10-Day Weather Forecast

Almanac

Astronomy

Feb. 08, 2016 Rise Set
Actual Time
Civil Twilight
Nautical Twilight
Astronomical Twilight
Moon
Length of Visible Light
Length of Day
Tomorrow will be .
, % of the Moon is Illuminated

Today's Extremes

State Highs State Lows

Community

WunderPhotos

Upload Photos

1,891,437 photos uploaded!

WunderBlog® & News

Nearby

Air Quality

  Air Quality AQ Index Pollutant
Not available.

Snow Depth

Station Depth Elevation

Earthquake Activity

City Distance Mag. Time & Date
Minimum magnitude displayed is 2.5.

Coastal Water Temperatures

Place Temperature

Stations

Nearby Weather Stations

Station Location Temp. Windchill Dew Point Humidity Wind Precip. Elev Updated Type
                   

Watches & Warnings

Wind Advisory
Issued: 4:52 AM CST Feb. 8, 2016 – National Weather Service

... Wind Advisory remains in effect from 8 am this morning to 6 PM
CST this evening...

* timing... northwesterly winds will increase this morning and
continue into this afternoon.

* Winds... northwesterly winds of 25 to 35 mph with gusts of 40 to
45 mph are expected.

* Impacts... strong Crosswinds on area highways will impact travel
including interstates 44 and 49... and Missouri state highways
13... 54... 63... 65... and 60. High profile vehicles will be
especially impacted by the winds.

Precautionary/preparedness actions...

A Wind Advisory means that winds of 35 mph are expected. Travelers
should use extra caution.



Foster